sensor_id;sensor_type;location;lat;lon;timestamp;temperature;humidity
67141;DHT22;54058;52.010;5.546;2023-07-02T00:00:59;19.10;79.20
67141;DHT22;54058;52.010;5.546;2023-07-02T00:03:24;19.10;79.30
67141;DHT22;54058;52.010;5.546;2023-07-02T00:05:50;19.10;79.30
67141;DHT22;54058;52.010;5.546;2023-07-02T00:08:22;19.10;79.40
67141;DHT22;54058;52.010;5.546;2023-07-02T00:10:48;19.10;79.60
67141;DHT22;54058;52.010;5.546;2023-07-02T00:13:16;18.90;80.40
67141;DHT22;54058;52.010;5.546;2023-07-02T00:15:42;18.70;80.10
67141;DHT22;54058;52.010;5.546;2023-07-02T00:18:08;18.30;80.00
67141;DHT22;54058;52.010;5.546;2023-07-02T00:20:33;18.10;80.60
67141;DHT22;54058;52.010;5.546;2023-07-02T00:23:03;18.00;80.80
67141;DHT22;54058;52.010;5.546;2023-07-02T00:25:29;17.90;81.20
67141;DHT22;54058;52.010;5.546;2023-07-02T00:27:54;17.70;81.40
67141;DHT22;54058;52.010;5.546;2023-07-02T00:30:20;17.70;81.70
67141;DHT22;54058;52.010;5.546;2023-07-02T00:32:46;17.70;81.80
67141;DHT22;54058;52.010;5.546;2023-07-02T00:35:11;17.70;81.80
67141;DHT22;54058;52.010;5.546;2023-07-02T00:37:37;17.70;81.60
67141;DHT22;54058;52.010;5.546;2023-07-02T00:40:03;17.70;81.50
67141;DHT22;54058;52.010;5.546;2023-07-02T00:42:29;17.70;82.10
67141;DHT22;54058;52.010;5.546;2023-07-02T00:44:56;17.60;81.70
67141;DHT22;54058;52.010;5.546;2023-07-02T00:47:23;17.60;81.50
67141;DHT22;54058;52.010;5.546;2023-07-02T00:49:50;17.60;81.50
67141;DHT22;54058;52.010;5.546;2023-07-02T00:52:16;17.50;81.70
67141;DHT22;54058;52.010;5.546;2023-07-02T00:54:45;17.50;81.90
67141;DHT22;54058;52.010;5.546;2023-07-02T00:57:11;17.40;81.80
67141;DHT22;54058;52.010;5.546;2023-07-02T00:59:37;17.50;81.80
67141;DHT22;54058;52.010;5.546;2023-07-02T01:02:04;17.40;81.50
67141;DHT22;54058;52.010;5.546;2023-07-02T01:04:30;17.50;81.60
67141;DHT22;54058;52.010;5.546;2023-07-02T01:06:56;17.50;81.50
67141;DHT22;54058;52.010;5.546;2023-07-02T01:09:23;17.60;81.40
67141;DHT22;54058;52.010;5.546;2023-07-02T01:12:03;17.60;81.10
67141;DHT22;54058;52.010;5.546;2023-07-02T01:14:37;17.60;81.40
67141;DHT22;54058;52.010;5.546;2023-07-02T01:17:04;17.60;81.10
67141;DHT22;54058;52.010;5.546;2023-07-02T01:19:49;17.50;80.90
67141;DHT22;54058;52.010;5.546;2023-07-02T01:22:26;17.50;83.10
67141;DHT22;54058;52.010;5.546;2023-07-02T01:24:52;17.50;80.90
67141;DHT22;54058;52.010;5.546;2023-07-02T01:27:18;17.50;80.70
67141;DHT22;54058;52.010;5.546;2023-07-02T01:29:45;17.50;81.20
67141;DHT22;54058;52.010;5.546;2023-07-02T01:32:13;17.40;80.50
67141;DHT22;54058;52.010;5.546;2023-07-02T01:34:39;17.40;80.70
67141;DHT22;54058;52.010;5.546;2023-07-02T01:37:05;17.30;80.70
67141;DHT22;54058;52.010;5.546;2023-07-02T01:39:31;17.30;80.90
67141;DHT22;54058;52.010;5.546;2023-07-02T01:42:11;17.20;81.00
67141;DHT22;54058;52.010;5.546;2023-07-02T01:44:38;17.20;81.30
67141;DHT22;54058;52.010;5.546;2023-07-02T01:47:04;17.20;81.10
67141;DHT22;54058;52.010;5.546;2023-07-02T01:49:29;17.10;81.00
67141;DHT22;54058;52.010;5.546;2023-07-02T01:51:55;17.10;81.00
67141;DHT22;54058;52.010;5.546;2023-07-02T01:54:23;17.10;81.10
67141;DHT22;54058;52.010;5.546;2023-07-02T01:56:49;17.10;81.00
67141;DHT22;54058;52.010;5.546;2023-07-02T01:59:15;17.10;81.00
67141;DHT22;54058;52.010;5.546;2023-07-02T02:01:42;17.10;81.00
67141;DHT22;54058;52.010;5.546;2023-07-02T02:04:09;17.00;80.90
67141;DHT22;54058;52.010;5.546;2023-07-02T02:06:35;17.00;81.10
67141;DHT22;54058;52.010;5.546;2023-07-02T02:09:02;16.90;81.10
67141;DHT22;54058;52.010;5.546;2023-07-02T02:11:30;16.90;81.10
67141;DHT22;54058;52.010;5.546;2023-07-02T02:13:56;16.90;81.20
67141;DHT22;54058;52.010;5.546;2023-07-02T02:16:22;16.80;81.20
67141;DHT22;54058;52.010;5.546;2023-07-02T02:18:48;16.80;81.40
67141;DHT22;54058;52.010;5.546;2023-07-02T02:21:17;16.80;81.40
67141;DHT22;54058;52.010;5.546;2023-07-02T02:23:43;16.80;81.60
67141;DHT22;54058;52.010;5.546;2023-07-02T02:26:08;16.80;81.60
67141;DHT22;54058;52.010;5.546;2023-07-02T02:28:34;16.80;81.60
67141;DHT22;54058;52.010;5.546;2023-07-02T02:31:00;16.80;81.70
67141;DHT22;54058;52.010;5.546;2023-07-02T02:33:26;16.80;81.70
67141;DHT22;54058;52.010;5.546;2023-07-02T02:35:51;16.80;81.60
67141;DHT22;54058;52.010;5.546;2023-07-02T02:38:17;16.80;81.50
67141;DHT22;54058;52.010;5.546;2023-07-02T02:40:43;16.80;81.50
67141;DHT22;54058;52.010;5.546;2023-07-02T02:43:08;16.80;81.40
67141;DHT22;54058;52.010;5.546;2023-07-02T02:45:34;16.80;81.50
67141;DHT22;54058;52.010;5.546;2023-07-02T02:48:00;16.80;81.60
67141;DHT22;54058;52.010;5.546;2023-07-02T02:50:25;16.80;81.50
67141;DHT22;54058;52.010;5.546;2023-07-02T02:52:51;16.80;81.70
67141;DHT22;54058;52.010;5.546;2023-07-02T02:55:17;16.70;81.80
67141;DHT22;54058;52.010;5.546;2023-07-02T02:57:42;16.70;82.00
67141;DHT22;54058;52.010;5.546;2023-07-02T03:00:08;16.70;82.20
67141;DHT22;54058;52.010;5.546;2023-07-02T03:02:35;16.70;82.10
67141;DHT22;54058;52.010;5.546;2023-07-02T03:05:01;16.70;82.10
67141;DHT22;54058;52.010;5.546;2023-07-02T03:07:28;16.70;82.30
67141;DHT22;54058;52.010;5.546;2023-07-02T03:09:53;16.70;82.20
67141;DHT22;54058;52.010;5.546;2023-07-02T03:12:22;16.70;82.30
67141;DHT22;54058;52.010;5.546;2023-07-02T03:14:48;16.70;82.50
67141;DHT22;54058;52.010;5.546;2023-07-02T03:17:18;16.70;82.60
67141;DHT22;54058;52.010;5.546;2023-07-02T03:19:44;16.70;82.50
67141;DHT22;54058;52.010;5.546;2023-07-02T03:22:10;16.70;82.50
67141;DHT22;54058;52.010;5.546;2023-07-02T03:24:35;16.70;82.50
67141;DHT22;54058;52.010;5.546;2023-07-02T03:27:01;16.70;82.50
67141;DHT22;54058;52.010;5.546;2023-07-02T03:29:27;16.70;82.50
67141;DHT22;54058;52.010;5.546;2023-07-02T03:31:52;16.60;82.50
67141;DHT22;54058;52.010;5.546;2023-07-02T03:34:18;16.60;82.50
67141;DHT22;54058;52.010;5.546;2023-07-02T03:36:44;16.50;82.60
67141;DHT22;54058;52.010;5.546;2023-07-02T03:39:10;16.60;82.80
67141;DHT22;54058;52.010;5.546;2023-07-02T03:41:35;16.60;82.70
67141;DHT22;54058;52.010;5.546;2023-07-02T03:44:01;16.60;82.70
67141;DHT22;54058;52.010;5.546;2023-07-02T03:46:27;16.60;82.60
67141;DHT22;54058;52.010;5.546;2023-07-02T03:48:53;16.60;82.40
67141;DHT22;54058;52.010;5.546;2023-07-02T03:51:18;16.50;82.50
67141;DHT22;54058;52.010;5.546;2023-07-02T03:53:44;16.50;82.50
67141;DHT22;54058;52.010;5.546;2023-07-02T03:56:09;16.40;82.40
67141;DHT22;54058;52.010;5.546;2023-07-02T03:58:35;16.40;82.50
67141;DHT22;54058;52.010;5.546;2023-07-02T04:01:01;16.40;82.70
67141;DHT22;54058;52.010;5.546;2023-07-02T04:03:26;16.50;82.60
67141;DHT22;54058;52.010;5.546;2023-07-02T04:05:52;16.60;82.40
67141;DHT22;54058;52.010;5.546;2023-07-02T04:08:18;16.70;82.30
67141;DHT22;54058;52.010;5.546;2023-07-02T04:10:46;16.70;82.20
67141;DHT22;54058;52.010;5.546;2023-07-02T04:13:11;16.80;82.30
67141;DHT22;54058;52.010;5.546;2023-07-02T04:15:41;16.90;82.10
67141;DHT22;54058;52.010;5.546;2023-07-02T04:18:08;16.90;82.10
67141;DHT22;54058;52.010;5.546;2023-07-02T04:20:33;16.80;82.10
67141;DHT22;54058;52.010;5.546;2023-07-02T04:22:59;16.90;82.10
67141;DHT22;54058;52.010;5.546;2023-07-02T04:25:25;17.10;81.80
67141;DHT22;54058;52.010;5.546;2023-07-02T04:27:50;17.30;81.50
67141;DHT22;54058;52.010;5.546;2023-07-02T04:30:21;17.70;81.30
67141;DHT22;54058;52.010;5.546;2023-07-02T04:32:47;17.80;80.70
67141;DHT22;54058;52.010;5.546;2023-07-02T04:35:13;17.80;80.70
67141;DHT22;54058;52.010;5.546;2023-07-02T04:37:38;18.00;80.60
67141;DHT22;54058;52.010;5.546;2023-07-02T04:40:05;18.40;80.60
67141;DHT22;54058;52.010;5.546;2023-07-02T04:42:38;18.60;80.00
67141;DHT22;54058;52.010;5.546;2023-07-02T04:45:07;18.80;79.90
67141;DHT22;54058;52.010;5.546;2023-07-02T04:47:34;19.30;79.50
67141;DHT22;54058;52.010;5.546;2023-07-02T04:50:00;19.70;78.90
67141;DHT22;54058;52.010;5.546;2023-07-02T04:52:26;19.90;78.70
67141;DHT22;54058;52.010;5.546;2023-07-02T04:54:52;19.80;78.80
67141;DHT22;54058;52.010;5.546;2023-07-02T04:57:17;19.60;79.20
67141;DHT22;54058;52.010;5.546;2023-07-02T04:59:43;19.50;79.80
67141;DHT22;54058;52.010;5.546;2023-07-02T05:02:09;19.40;80.00
67141;DHT22;54058;52.010;5.546;2023-07-02T05:04:36;19.20;80.10
67141;DHT22;54058;52.010;5.546;2023-07-02T05:07:03;19.10;80.60
67141;DHT22;54058;52.010;5.546;2023-07-02T05:09:29;18.90;80.80
67141;DHT22;54058;52.010;5.546;2023-07-02T05:11:55;18.70;81.20
67141;DHT22;54058;52.010;5.546;2023-07-02T05:14:21;18.70;81.40
67141;DHT22;54058;52.010;5.546;2023-07-02T05:16:48;18.70;81.50
67141;DHT22;54058;52.010;5.546;2023-07-02T05:19:14;18.70;81.50
67141;DHT22;54058;52.010;5.546;2023-07-02T05:21:40;18.60;81.60
67141;DHT22;54058;52.010;5.546;2023-07-02T05:24:06;18.60;81.80
67141;DHT22;54058;52.010;5.546;2023-07-02T05:26:32;18.50;81.60
67141;DHT22;54058;52.010;5.546;2023-07-02T05:28:58;18.60;81.70
67141;DHT22;54058;52.010;5.546;2023-07-02T05:31:24;18.40;81.80
67141;DHT22;54058;52.010;5.546;2023-07-02T05:33:49;18.40;81.90
67141;DHT22;54058;52.010;5.546;2023-07-02T05:36:15;18.40;81.90
67141;DHT22;54058;52.010;5.546;2023-07-02T05:38:41;18.50;81.90
67141;DHT22;54058;52.010;5.546;2023-07-02T05:41:07;18.50;82.30
67141;DHT22;54058;52.010;5.546;2023-07-02T05:43:32;18.60;81.70
67141;DHT22;54058;52.010;5.546;2023-07-02T05:45:58;18.50;81.40
67141;DHT22;54058;52.010;5.546;2023-07-02T05:48:27;18.60;81.70
67141;DHT22;54058;52.010;5.546;2023-07-02T05:50:55;18.60;81.50
67141;DHT22;54058;52.010;5.546;2023-07-02T05:53:21;18.70;81.40
67141;DHT22;54058;52.010;5.546;2023-07-02T05:55:47;18.70;81.40
67141;DHT22;54058;52.010;5.546;2023-07-02T05:58:13;18.70;81.30
67141;DHT22;54058;52.010;5.546;2023-07-02T06:00:39;18.80;81.30
67141;DHT22;54058;52.010;5.546;2023-07-02T06:03:07;18.70;81.20
67141;DHT22;54058;52.010;5.546;2023-07-02T06:05:32;18.70;81.10
67141;DHT22;54058;52.010;5.546;2023-07-02T06:07:58;18.70;81.00
67141;DHT22;54058;52.010;5.546;2023-07-02T06:10:24;18.70;80.90
67141;DHT22;54058;52.010;5.546;2023-07-02T06:12:49;18.70;80.80
67141;DHT22;54058;52.010;5.546;2023-07-02T06:15:15;18.70;80.90
67141;DHT22;54058;52.010;5.546;2023-07-02T06:17:40;18.70;80.80
67141;DHT22;54058;52.010;5.546;2023-07-02T06:20:06;18.70;80.60
67141;DHT22;54058;52.010;5.546;2023-07-02T06:22:33;18.70;80.60
67141;DHT22;54058;52.010;5.546;2023-07-02T06:24:59;18.80;80.50
67141;DHT22;54058;52.010;5.546;2023-07-02T06:27:26;18.90;80.60
67141;DHT22;54058;52.010;5.546;2023-07-02T06:29:52;19.10;80.40
67141;DHT22;54058;52.010;5.546;2023-07-02T06:32:18;19.30;80.10
67141;DHT22;54058;52.010;5.546;2023-07-02T06:34:44;19.40;80.40
67141;DHT22;54058;52.010;5.546;2023-07-02T06:37:10;19.50;79.90
67141;DHT22;54058;52.010;5.546;2023-07-02T06:39:36;19.70;80.00
67141;DHT22;54058;52.010;5.546;2023-07-02T06:42:01;20.20;80.50
67141;DHT22;54058;52.010;5.546;2023-07-02T06:44:27;20.70;80.70
67141;DHT22;54058;52.010;5.546;2023-07-02T06:46:53;21.30;80.80
67141;DHT22;54058;52.010;5.546;2023-07-02T06:49:18;21.70;80.60
67141;DHT22;54058;52.010;5.546;2023-07-02T06:51:44;21.50;80.50
67141;DHT22;54058;52.010;5.546;2023-07-02T06:54:10;21.40;80.50
67141;DHT22;54058;52.010;5.546;2023-07-02T06:56:36;21.10;80.50
67141;DHT22;54058;52.010;5.546;2023-07-02T06:59:01;21.00;80.70
67141;DHT22;54058;52.010;5.546;2023-07-02T07:01:28;21.00;80.80
67141;DHT22;54058;52.010;5.546;2023-07-02T07:03:53;21.20;80.90
67141;DHT22;54058;52.010;5.546;2023-07-02T07:06:19;21.70;81.00
67141;DHT22;54058;52.010;5.546;2023-07-02T07:08:45;22.00;81.20
67141;DHT22;54058;52.010;5.546;2023-07-02T07:11:11;22.40;81.30
67141;DHT22;54058;52.010;5.546;2023-07-02T07:13:36;23.00;81.50
67141;DHT22;54058;52.010;5.546;2023-07-02T07:16:02;23.20;81.20
67141;DHT22;54058;52.010;5.546;2023-07-02T07:18:27;23.50;80.80
67141;DHT22;54058;52.010;5.546;2023-07-02T07:20:53;23.50;80.30
67141;DHT22;54058;52.010;5.546;2023-07-02T07:23:19;23.30;79.80
67141;DHT22;54058;52.010;5.546;2023-07-02T07:25:45;23.00;79.80
67141;DHT22;54058;52.010;5.546;2023-07-02T07:28:10;22.80;79.20
67141;DHT22;54058;52.010;5.546;2023-07-02T07:30:42;22.60;79.00
67141;DHT22;54058;52.010;5.546;2023-07-02T07:33:09;22.40;78.10
67141;DHT22;54058;52.010;5.546;2023-07-02T07:35:35;22.30;77.60
67141;DHT22;54058;52.010;5.546;2023-07-02T07:38:01;22.10;77.10
67141;DHT22;54058;52.010;5.546;2023-07-02T07:40:26;21.90;77.30
67141;DHT22;54058;52.010;5.546;2023-07-02T07:42:52;22.10;77.20
67141;DHT22;54058;52.010;5.546;2023-07-02T07:45:17;22.20;77.40
67141;DHT22;54058;52.010;5.546;2023-07-02T07:47:43;22.30;77.10
67141;DHT22;54058;52.010;5.546;2023-07-02T07:50:09;22.50;76.60
67141;DHT22;54058;52.010;5.546;2023-07-02T07:52:38;22.30;75.40
67141;DHT22;54058;52.010;5.546;2023-07-02T07:55:04;22.30;75.40
67141;DHT22;54058;52.010;5.546;2023-07-02T07:57:30;22.30;69.20
67141;DHT22;54058;52.010;5.546;2023-07-02T07:59:55;22.30;74.70
67141;DHT22;54058;52.010;5.546;2023-07-02T08:02:21;22.10;74.50
67141;DHT22;54058;52.010;5.546;2023-07-02T08:04:48;22.10;74.00
67141;DHT22;54058;52.010;5.546;2023-07-02T08:07:14;21.90;73.30
67141;DHT22;54058;52.010;5.546;2023-07-02T08:09:40;21.90;73.50
67141;DHT22;54058;52.010;5.546;2023-07-02T08:12:06;21.80;73.10
67141;DHT22;54058;52.010;5.546;2023-07-02T08:14:31;21.90;72.50
67141;DHT22;54058;52.010;5.546;2023-07-02T08:16:57;21.80;72.70
67141;DHT22;54058;52.010;5.546;2023-07-02T08:19:23;21.80;72.10
67141;DHT22;54058;52.010;5.546;2023-07-02T08:21:48;22.00;72.40
67141;DHT22;54058;52.010;5.546;2023-07-02T08:24:14;22.30;73.40
67141;DHT22;54058;52.010;5.546;2023-07-02T08:26:40;22.70;74.20
67141;DHT22;54058;52.010;5.546;2023-07-02T08:29:05;23.20;74.40
67141;DHT22;54058;52.010;5.546;2023-07-02T08:31:31;23.60;74.10
67141;DHT22;54058;52.010;5.546;2023-07-02T08:33:57;23.70;74.50
67141;DHT22;54058;52.010;5.546;2023-07-02T08:36:22;23.40;73.60
67141;DHT22;54058;52.010;5.546;2023-07-02T08:38:48;23.30;72.80
67141;DHT22;54058;52.010;5.546;2023-07-02T08:41:13;23.40;73.30
67141;DHT22;54058;52.010;5.546;2023-07-02T08:43:40;23.40;73.60
67141;DHT22;54058;52.010;5.546;2023-07-02T08:46:06;23.30;72.30
67141;DHT22;54058;52.010;5.546;2023-07-02T08:48:34;23.20;71.70
67141;DHT22;54058;52.010;5.546;2023-07-02T08:51:00;23.00;70.10
67141;DHT22;54058;52.010;5.546;2023-07-02T08:53:25;23.30;70.80
67141;DHT22;54058;52.010;5.546;2023-07-02T08:55:55;23.60;70.60
67141;DHT22;54058;52.010;5.546;2023-07-02T08:58:24;23.50;69.30
67141;DHT22;54058;52.010;5.546;2023-07-02T09:01:10;23.70;69.80
67141;DHT22;54058;52.010;5.546;2023-07-02T09:03:36;24.20;64.00
67141;DHT22;54058;52.010;5.546;2023-07-02T09:06:06;24.20;57.00
67141;DHT22;54058;52.010;5.546;2023-07-02T09:08:32;24.00;69.20
67141;DHT22;54058;52.010;5.546;2023-07-02T09:11:08;24.00;68.20
67141;DHT22;54058;52.010;5.546;2023-07-02T09:13:48;24.30;66.60
67141;DHT22;54058;52.010;5.546;2023-07-02T09:16:40;24.50;59.50
67141;DHT22;54058;52.010;5.546;2023-07-02T09:19:08;24.60;58.50
67141;DHT22;54058;52.010;5.546;2023-07-02T09:21:49;24.60;64.30
67141;DHT22;54058;52.010;5.546;2023-07-02T09:24:22;24.40;59.40
67141;DHT22;54058;52.010;5.546;2023-07-02T09:26:50;24.50;62.80
67141;DHT22;54058;52.010;5.546;2023-07-02T09:29:31;24.50;63.10
67141;DHT22;54058;52.010;5.546;2023-07-02T09:32:06;24.60;61.40
67141;DHT22;54058;52.010;5.546;2023-07-02T09:34:38;24.70;59.20
67141;DHT22;54058;52.010;5.546;2023-07-02T09:37:05;24.70;60.90
67141;DHT22;54058;52.010;5.546;2023-07-02T09:39:34;24.80;60.00
67141;DHT22;54058;52.010;5.546;2023-07-02T09:42:02;24.90;56.20
67141;DHT22;54058;52.010;5.546;2023-07-02T09:44:29;25.10;59.90
67141;DHT22;54058;52.010;5.546;2023-07-02T09:49:57;25.40;56.90
67141;DHT22;54058;52.010;5.546;2023-07-02T09:52:26;25.30;53.70
67141;DHT22;54058;52.010;5.546;2023-07-02T09:54:52;25.20;57.80
67141;DHT22;54058;52.010;5.546;2023-07-02T09:57:18;24.80;56.70
67141;DHT22;54058;52.010;5.546;2023-07-02T09:59:44;24.30;57.40
67141;DHT22;54058;52.010;5.546;2023-07-02T10:02:10;24.00;57.90
67141;DHT22;54058;52.010;5.546;2023-07-02T10:04:46;24.00;57.70
67141;DHT22;54058;52.010;5.546;2023-07-02T10:07:12;24.00;56.70
67141;DHT22;54058;52.010;5.546;2023-07-02T10:09:42;23.70;50.50
67141;DHT22;54058;52.010;5.546;2023-07-02T10:12:45;23.70;57.20
67141;DHT22;54058;52.010;5.546;2023-07-02T10:15:10;23.60;54.60
67141;DHT22;54058;52.010;5.546;2023-07-02T10:17:36;23.70;57.00
67141;DHT22;54058;52.010;5.546;2023-07-02T10:20:06;23.90;56.10
67141;DHT22;54058;52.010;5.546;2023-07-02T10:22:47;23.90;55.40
67141;DHT22;54058;52.010;5.546;2023-07-02T10:25:27;23.80;53.30
67141;DHT22;54058;52.010;5.546;2023-07-02T10:27:53;24.00;53.40
67141;DHT22;54058;52.010;5.546;2023-07-02T10:30:29;24.00;54.20
67141;DHT22;54058;52.010;5.546;2023-07-02T10:32:55;23.80;54.20
67141;DHT22;54058;52.010;5.546;2023-07-02T10:35:33;23.60;49.40
67141;DHT22;54058;52.010;5.546;2023-07-02T10:37:59;23.60;54.90
67141;DHT22;54058;52.010;5.546;2023-07-02T10:40:25;23.80;54.70
67141;DHT22;54058;52.010;5.546;2023-07-02T10:42:52;24.00;54.00
67141;DHT22;54058;52.010;5.546;2023-07-02T10:45:19;24.20;53.30
67141;DHT22;54058;52.010;5.546;2023-07-02T10:47:45;24.40;52.90
67141;DHT22;54058;52.010;5.546;2023-07-02T10:50:18;24.60;52.10
67141;DHT22;54058;52.010;5.546;2023-07-02T10:52:45;24.50;51.70
67141;DHT22;54058;52.010;5.546;2023-07-02T10:55:15;24.60;51.90
67141;DHT22;54058;52.010;5.546;2023-07-02T10:57:41;24.70;51.60
67141;DHT22;54058;52.010;5.546;2023-07-02T11:00:07;24.60;51.30
67141;DHT22;54058;52.010;5.546;2023-07-02T11:02:34;24.50;51.40
67141;DHT22;54058;52.010;5.546;2023-07-02T11:05:00;24.40;47.00
67141;DHT22;54058;52.010;5.546;2023-07-02T11:07:25;24.40;51.90
67141;DHT22;54058;52.010;5.546;2023-07-02T11:09:51;24.40;51.60
67141;DHT22;54058;52.010;5.546;2023-07-02T11:12:17;24.40;51.40
67141;DHT22;54058;52.010;5.546;2023-07-02T11:14:43;24.40;51.40
67141;DHT22;54058;52.010;5.546;2023-07-02T11:17:08;24.40;51.50
67141;DHT22;54058;52.010;5.546;2023-07-02T11:19:35;24.40;51.30
67141;DHT22;54058;52.010;5.546;2023-07-02T11:22:01;24.40;51.30
67141;DHT22;54058;52.010;5.546;2023-07-02T11:26:57;24.40;51.60
67141;DHT22;54058;52.010;5.546;2023-07-02T11:29:23;24.60;50.70
67141;DHT22;54058;52.010;5.546;2023-07-02T11:31:49;24.40;50.90
67141;DHT22;54058;52.010;5.546;2023-07-02T11:34:16;24.10;50.70
67141;DHT22;54058;52.010;5.546;2023-07-02T11:36:42;24.10;51.00
67141;DHT22;54058;52.010;5.546;2023-07-02T11:39:08;24.20;50.90
67141;DHT22;54058;52.010;5.546;2023-07-02T11:41:41;23.90;50.70
67141;DHT22;54058;52.010;5.546;2023-07-02T11:44:07;23.90;48.40
67141;DHT22;54058;52.010;5.546;2023-07-02T11:46:33;24.10;51.00
67141;DHT22;54058;52.010;5.546;2023-07-02T11:49:05;24.20;50.70
67141;DHT22;54058;52.010;5.546;2023-07-02T11:51:37;24.40;50.30
67141;DHT22;54058;52.010;5.546;2023-07-02T11:54:04;24.40;49.90
67141;DHT22;54058;52.010;5.546;2023-07-02T11:56:30;24.30;50.40
67141;DHT22;54058;52.010;5.546;2023-07-02T11:58:56;24.40;49.70
67141;DHT22;54058;52.010;5.546;2023-07-02T12:01:21;24.30;49.90
67141;DHT22;54058;52.010;5.546;2023-07-02T12:03:47;24.20;49.80
67141;DHT22;54058;52.010;5.546;2023-07-02T12:06:13;24.00;50.00
67141;DHT22;54058;52.010;5.546;2023-07-02T12:08:39;23.90;50.10
67141;DHT22;54058;52.010;5.546;2023-07-02T12:11:05;23.70;49.90
67141;DHT22;54058;52.010;5.546;2023-07-02T12:13:30;23.50;50.30
67141;DHT22;54058;52.010;5.546;2023-07-02T12:15:59;23.70;50.20
67141;DHT22;54058;52.010;5.546;2023-07-02T12:18:24;23.80;49.80
67141;DHT22;54058;52.010;5.546;2023-07-02T12:20:50;24.00;50.10
67141;DHT22;54058;52.010;5.546;2023-07-02T12:23:16;24.30;49.60
67141;DHT22;54058;52.010;5.546;2023-07-02T12:25:42;24.40;49.40
67141;DHT22;54058;52.010;5.546;2023-07-02T12:28:08;24.50;49.00
67141;DHT22;54058;52.010;5.546;2023-07-02T12:30:33;24.40;49.40
67141;DHT22;54058;52.010;5.546;2023-07-02T12:32:59;24.40;49.00
67141;DHT22;54058;52.010;5.546;2023-07-02T12:35:25;24.30;49.40
67141;DHT22;54058;52.010;5.546;2023-07-02T12:37:52;24.20;49.60
67141;DHT22;54058;52.010;5.546;2023-07-02T12:40:21;24.20;49.10
67141;DHT22;54058;52.010;5.546;2023-07-02T12:42:48;24.20;49.00
67141;DHT22;54058;52.010;5.546;2023-07-02T12:45:15;24.10;49.80
67141;DHT22;54058;52.010;5.546;2023-07-02T12:47:42;24.20;48.90
67141;DHT22;54058;52.010;5.546;2023-07-02T12:50:08;24.20;49.40
67141;DHT22;54058;52.010;5.546;2023-07-02T12:52:33;24.20;45.60
67141;DHT22;54058;52.010;5.546;2023-07-02T12:55:00;24.20;49.30
67141;DHT22;54058;52.010;5.546;2023-07-02T12:57:26;24.20;49.00
67141;DHT22;54058;52.010;5.546;2023-07-02T12:59:55;24.30;48.70
67141;DHT22;54058;52.010;5.546;2023-07-02T13:02:22;24.20;48.50
67141;DHT22;54058;52.010;5.546;2023-07-02T13:04:48;24.20;48.60
67141;DHT22;54058;52.010;5.546;2023-07-02T13:07:13;24.40;48.90
67141;DHT22;54058;52.010;5.546;2023-07-02T13:09:39;24.40;48.80
67141;DHT22;54058;52.010;5.546;2023-07-02T13:12:07;24.40;48.30
67141;DHT22;54058;52.010;5.546;2023-07-02T13:14:34;24.30;48.60
67141;DHT22;54058;52.010;5.546;2023-07-02T13:17:00;24.20;48.60
67141;DHT22;54058;52.010;5.546;2023-07-02T13:19:30;24.20;48.80
67141;DHT22;54058;52.010;5.546;2023-07-02T13:21:56;24.20;48.50
67141;DHT22;54058;52.010;5.546;2023-07-02T13:24:22;24.10;48.60
67141;DHT22;54058;52.010;5.546;2023-07-02T13:26:47;24.20;48.90
67141;DHT22;54058;52.010;5.546;2023-07-02T13:29:14;24.30;48.70
67141;DHT22;54058;52.010;5.546;2023-07-02T13:31:39;24.30;48.50
67141;DHT22;54058;52.010;5.546;2023-07-02T13:34:05;24.20;48.40
67141;DHT22;54058;52.010;5.546;2023-07-02T13:36:30;24.10;48.40
67141;DHT22;54058;52.010;5.546;2023-07-02T13:38:56;24.00;48.60
67141;DHT22;54058;52.010;5.546;2023-07-02T13:41:22;24.00;49.20
67141;DHT22;54058;52.010;5.546;2023-07-02T13:43:47;23.90;48.40
67141;DHT22;54058;52.010;5.546;2023-07-02T13:46:13;23.90;48.50
67141;DHT22;54058;52.010;5.546;2023-07-02T13:48:39;23.90;48.60
67141;DHT22;54058;52.010;5.546;2023-07-02T13:51:05;23.90;48.30
67141;DHT22;54058;52.010;5.546;2023-07-02T13:53:33;23.80;48.30
67141;DHT22;54058;52.010;5.546;2023-07-02T13:55:59;23.60;49.10
67141;DHT22;54058;52.010;5.546;2023-07-02T14:01:11;23.40;47.50
67141;DHT22;54058;52.010;5.546;2023-07-02T14:03:37;23.30;49.00
67141;DHT22;54058;52.010;5.546;2023-07-02T14:06:03;23.20;48.90
67141;DHT22;54058;52.010;5.546;2023-07-02T14:08:32;23.20;49.00
67141;DHT22;54058;52.010;5.546;2023-07-02T14:11:00;23.20;48.80
67141;DHT22;54058;52.010;5.546;2023-07-02T14:13:25;23.20;48.90
67141;DHT22;54058;52.010;5.546;2023-07-02T14:15:51;23.30;48.90
67141;DHT22;54058;52.010;5.546;2023-07-02T14:18:17;23.40;49.30
67141;DHT22;54058;52.010;5.546;2023-07-02T14:20:42;23.50;48.50
67141;DHT22;54058;52.010;5.546;2023-07-02T14:23:08;23.60;48.50
67141;DHT22;54058;52.010;5.546;2023-07-02T14:25:34;23.70;48.10
67141;DHT22;54058;52.010;5.546;2023-07-02T14:28:00;23.70;48.10
67141;DHT22;54058;52.010;5.546;2023-07-02T14:30:29;23.60;48.20
67141;DHT22;54058;52.010;5.546;2023-07-02T14:32:54;23.50;48.40
67141;DHT22;54058;52.010;5.546;2023-07-02T14:35:20;23.40;48.40
67141;DHT22;54058;52.010;5.546;2023-07-02T14:37:50;23.40;48.30
67141;DHT22;54058;52.010;5.546;2023-07-02T14:40:17;23.40;48.30
67141;DHT22;54058;52.010;5.546;2023-07-02T14:42:43;23.40;48.30
67141;DHT22;54058;52.010;5.546;2023-07-02T14:45:09;23.20;48.10
67141;DHT22;54058;52.010;5.546;2023-07-02T14:47:35;23.30;48.00
67141;DHT22;54058;52.010;5.546;2023-07-02T14:50:01;23.30;47.50
67141;DHT22;54058;52.010;5.546;2023-07-02T14:52:26;23.20;47.10
67141;DHT22;54058;52.010;5.546;2023-07-02T14:54:53;23.10;47.70
67141;DHT22;54058;52.010;5.546;2023-07-02T14:57:18;23.10;47.70
67141;DHT22;54058;52.010;5.546;2023-07-02T14:59:45;23.20;47.40
67141;DHT22;54058;52.010;5.546;2023-07-02T15:02:13;23.10;47.00
67141;DHT22;54058;52.010;5.546;2023-07-02T15:04:39;23.10;47.30
67141;DHT22;54058;52.010;5.546;2023-07-02T15:07:05;23.10;47.30
67141;DHT22;54058;52.010;5.546;2023-07-02T15:09:30;23.10;47.50
67141;DHT22;54058;52.010;5.546;2023-07-02T15:11:56;23.10;47.40
67141;DHT22;54058;52.010;5.546;2023-07-02T15:14:22;23.00;47.10
67141;DHT22;54058;52.010;5.546;2023-07-02T15:16:48;23.00;47.20
67141;DHT22;54058;52.010;5.546;2023-07-02T15:19:13;22.90;47.30
67141;DHT22;54058;52.010;5.546;2023-07-02T15:21:41;22.90;47.40
67141;DHT22;54058;52.010;5.546;2023-07-02T15:24:07;22.80;47.00
67141;DHT22;54058;52.010;5.546;2023-07-02T15:26:36;22.80;47.20
67141;DHT22;54058;52.010;5.546;2023-07-02T15:29:01;22.70;46.90
67141;DHT22;54058;52.010;5.546;2023-07-02T15:31:27;22.70;47.30
67141;DHT22;54058;52.010;5.546;2023-07-02T15:33:54;22.70;46.90
67141;DHT22;54058;52.010;5.546;2023-07-02T15:36:19;22.70;47.00